Flight Track Log - Related Links

Times and Time Zones

All times are in EDT time to prevent confusion due to time zone crossing. See the N73DB flight status page for this flight to view local times or setup timezone preferences in your user account.


Time Position Orientation Groundspeed Altitude Reporting Facility
EDT Latitude Longitude Course Direction KTS MPH feet Rate Location/Type
Wed 06:29:28 AM 35.2264 -80.9419 38° Northeast 143 165 1,400  Level Atlanta Center
Wed 06:30:44 AM 35.2733 -80.8969 38° Northeast 211 243 3,800 1,828 Climbing Atlanta Center
Wed 06:31:36 AM 35.2800 -80.8356 82° East 252 290 5,300 1,750 Climbing Atlanta Center
Wed 06:32:44 AM 35.2939 -80.7283 81° East 287 330 7,300 2,016 Climbing Atlanta Center
Wed 06:33:44 AM 35.3058 -80.6336 81° East 287 330 9,600 2,200 Climbing Atlanta Center
Wed 06:34:44 AM 35.3200 -80.5414 79° East 282 325 11,700 1,900 Climbing Atlanta Center
Wed 06:35:44 AM 35.3403 -80.4489 75° East 275 316 13,400 1,500 Climbing Atlanta Center
Wed 06:36:44 AM 35.3686 -80.3508 70° East 295 339 14,700 578 Climbing Atlanta Center
Wed 06:38:30 AM 35.4239 -80.1647 70° East 318 366 15,000 110 Climbing Washington Center
Wed 06:39:27 AM 35.4575 -80.0519 70° East 353 406 15,000  Level Washington Center
Wed 06:40:29 AM 35.4869 -79.9311 73° East 359 413 15,000 -198 Level Washington Center
Wed 06:41:28 AM 35.5183 -79.8103 72° East 359 413 14,600 -1,107 Descending Washington Center
Wed 06:42:12 AM 35.5400 -79.7247 73° East 362 417 13,100 -1,948 Descending Washington Center
Wed 06:42:45 AM 35.5544 -79.6719 71° East 350 403 12,100 -1,840 Descending Washington Center
Wed 06:43:27 AM 35.5714 -79.6011 74° East 341 392 10,800 -1,806 Descending Washington Center
Wed 06:44:28 AM 35.6003 -79.4850 73° East 323 372 9,000 -1,500 Descending Washington Center
Wed 06:45:27 AM 35.6239 -79.3969 72° East 310 357 7,800 -1,700 Descending Washington Center
Wed 06:46:28 AM 35.6478 -79.3008 73° East 275 316 5,600 -2,044 Descending Washington Center
Wed 06:46:58 AM 35.6364 -79.2697 114° Southeast 245 282 4,700 -1,574 Descending Washington Center
Wed 06:47:29 AM 35.6100 -79.2428 140° Southeast 227 261 4,000 -689 Descending Washington Center
Wed 06:47:59 AM 35.5733 -79.2156 149° Southeast 272 313 4,000  Level Washington Center
Wed 06:48:29 AM 35.5394 -79.2344 204° Southwest 179 206 4,000 -725 Level Washington Center
Wed 06:49:30 AM 35.4797 -79.2778 211° Southwest 217 250 2,900 -908 Descending Washington Center
Wed 06:50:28 AM 35.4242 -79.3161 209° Southwest 233 268 2,200 -350 Descending Washington Center
Wed 06:51:30 AM 35.3917 -79.2839 141° Southeast 167 192 2,200  Level Washington Center
Wed 06:52:06 AM 35.3800 -79.2578 119° Southeast 157 181 2,200  Level Washington Center
Wed 06:53:06 AM 35.3961 -79.2103 67° East 143 165 2,200  Level Washington Center
Wed 06:54:13 AM 35.4306 -79.1761 39° Northeast 159 183 2,200 -97 Level Washington Center
Wed 06:55:10 AM 35.4644 -79.1597 21° North 145 167 2,000 -211 Descending Washington Center

Login

Don't have an account? Register now (free) for customized features, flight alerts, and more!